Time;durP1;ratioP1;P1;durP2;ratioP2;P2;SDS_P1;SDS_P2;PMS_P1;PMS_P2;Temp;Humidity;BMP_temperature;BMP_pressure;BME280_temperature;BME280_humidity;BME280_pressure;Samples;Min_cycle;Max_cycle;Signal;HPM_P1;HPM_P2
2022/08/19 00:05:15;;;;;;;1999.90;999.90;;;20.60;99.90;;;;;;6747934;88;20222;-80
2022/08/19 00:15:18;;;;;;;1999.90;999.90;;;20.60;99.90;;;;;;6748747;88;20677;-79
2022/08/19 00:25:19;;;;;;;1999.90;999.90;;;20.50;99.90;;;;;;6748409;88;20567;-80
2022/08/19 00:35:19;;;;;;;1999.90;999.90;;;20.50;99.90;;;;;;6747983;88;20200;-81
2022/08/19 00:45:23;;;;;;;1999.90;999.90;;;20.40;99.90;;;;;;6751320;88;20529;-80
2022/08/19 00:55:28;;;;;;;1999.90;999.90;;;20.40;99.90;;;;;;6750794;88;20200;-79
2022/08/19 01:05:29;;;;;;;1999.90;999.90;;;20.30;99.90;;;;;;6746906;88;20176;-80
2022/08/19 01:15:33;;;;;;;1999.90;999.90;;;20.20;99.90;;;;;;6749343;88;20216;-80
2022/08/19 01:25:43;;;;;;;1999.90;999.90;;;20.00;99.90;;;;;;6757866;88;20200;-79
2022/08/19 01:35:43;;;;;;;1999.90;999.90;;;19.90;99.90;;;;;;6748197;88;20180;-80
2022/08/19 01:45:44;;;;;;;1999.90;999.90;;;19.80;99.90;;;;;;6755791;88;20211;-81
2022/08/19 01:55:45;;;;;;;1999.90;999.90;;;19.80;99.90;;;;;;6752086;88;20184;-79
2022/08/19 02:05:46;;;;;;;1999.90;999.90;;;19.80;99.90;;;;;;6752072;88;20224;-80
2022/08/19 02:15:46;;;;;;;1999.90;999.90;;;19.90;99.90;;;;;;6747224;88;20242;-80
2022/08/19 02:25:48;;;;;;;1999.90;999.90;;;19.60;99.90;;;;;;6750473;88;20245;-80
2022/08/19 02:35:48;;;;;;;1999.90;999.90;;;19.60;99.90;;;;;;6746201;88;20235;-80
2022/08/19 02:45:49;;;;;;;1999.90;999.90;;;19.60;99.90;;;;;;6749570;88;20315;-81
2022/08/19 02:55:51;;;;;;;1999.90;999.90;;;19.80;99.90;;;;;;6753821;88;20180;-79
2022/08/19 03:05:51;;;;;;;1999.90;999.90;;;19.60;99.90;;;;;;6756577;88;21054;-79
2022/08/19 03:15:52;;;;;;;1999.90;999.90;;;19.50;99.90;;;;;;6755740;88;20193;-79
2022/08/19 03:25:53;;;;;;;1999.90;999.90;;;19.50;99.90;;;;;;6756966;88;20202;-79
2022/08/19 03:36:09;;;;;;;1999.90;999.90;;;19.40;99.90;;;;;;6753198;88;20283;-79
2022/08/19 03:46:14;;;;;;;1999.90;999.90;;;19.30;99.90;;;;;;6760116;88;20184;-80
2022/08/19 03:56:16;;;;;;;1999.90;999.90;;;19.30;99.90;;;;;;6762251;88;20587;-79
2022/08/19 04:06:22;;;;;;;1999.90;999.90;;;19.30;99.90;;;;;;6753725;88;20192;-79
2022/08/19 04:16:28;;;;;;;1999.90;999.90;;;19.20;99.90;;;;;;6759508;88;20309;-79
2022/08/19 04:26:33;;;;;;;1999.90;999.90;;;19.10;99.90;;;;;;6757872;87;20624;-79
2022/08/19 04:36:36;;;;;;;1999.90;999.90;;;19.10;99.90;;;;;;6753859;88;20180;-78
2022/08/19 04:46:36;;;;;;;1999.90;999.90;;;19.10;99.90;;;;;;6756627;87;20251;-78
2022/08/19 04:56:39;;;;;;;1999.90;999.90;;;19.10;99.90;;;;;;6758626;88;20213;-80
2022/08/19 05:06:40;;;;;;;1999.90;999.90;;;19.10;99.90;;;;;;6755232;88;20188;-80
2022/08/19 05:16:41;;;;;;;1999.90;999.90;;;19.10;99.90;;;;;;6766972;88;20189;-78
2022/08/19 05:26:46;;;;;;;1999.90;999.90;;;19.10;99.90;;;;;;6759720;88;20187;-77
2022/08/19 05:36:47;;;;;;;1999.90;999.90;;;19.20;99.90;;;;;;6763080;88;20241;-79
2022/08/19 05:46:48;;;;;;;1999.90;999.90;;;19.20;99.90;;;;;;6763752;88;20254;-77
2022/08/19 05:56:50;;;;;;;1999.90;999.90;;;19.30;99.90;;;;;;6751971;88;20279;-78
2022/08/19 06:06:53;;;;;;;1999.90;999.90;;;19.20;99.90;;;;;;6746548;77;20677;-76
2022/08/19 06:16:54;;;;;;;1999.90;999.90;;;19.20;99.90;;;;;;6728518;88;20202;-76
2022/08/19 06:26:56;;;;;;;1999.90;999.90;;;19.20;99.90;;;;;;6753049;88;20201;-77
2022/08/19 06:37:02;;;;;;;1999.90;999.90;;;19.50;99.90;;;;;;6734344;88;20733;-77
2022/08/19 06:47:06;;;;;;;1999.90;999.90;;;19.70;99.90;;;;;;6734669;88;20195;-77
2022/08/19 06:57:07;;;;;;;1999.90;999.90;;;19.90;99.90;;;;;;6733227;88;20193;-77
2022/08/19 07:07:13;;;;;;;1999.90;999.90;;;20.30;99.90;;;;;;6738297;88;20650;-77
2022/08/19 07:17:15;;;;;;;1999.90;999.90;;;20.60;99.90;;;;;;6738199;88;20183;-79
2022/08/19 07:27:15;;;;;;;1999.90;999.90;;;21.00;99.90;;;;;;6733558;88;20277;-78
2022/08/19 07:37:16;;;;;;;1999.90;999.90;;;21.60;99.90;;;;;;6727953;88;20214;-78
2022/08/19 07:47:18;;;;;;;1999.90;999.90;;;22.20;99.90;;;;;;6731743;88;20208;-76
2022/08/19 07:57:18;;;;;;;1999.90;999.90;;;22.80;99.90;;;;;;6732892;88;20201;-79
2022/08/19 08:17:39;;;;;;;1999.90;999.90;;;24.00;99.90;;;;;;6746016;88;20225;-79
2022/08/19 08:27:42;;;;;;;1999.90;999.90;;;24.50;99.90;;;;;;6736496;88;20770;-79
2022/08/19 08:37:49;;;;;;;1999.90;999.90;;;25.10;99.90;;;;;;6726094;88;20198;-78
2022/08/19 08:47:53;;;;;;;1999.90;999.90;;;25.70;99.90;;;;;;6726964;88;20425;-79
2022/08/19 08:58:02;;;;;;;1999.90;999.90;;;25.20;99.90;;;;;;6724135;88;20240;-79
2022/08/19 09:08:13;;;;;;;1999.90;999.90;;;26.00;99.90;;;;;;6738999;88;20267;-81
2022/08/19 09:18:16;;;;;;;1999.90;999.90;;;26.30;99.90;;;;;;6724987;88;20354;-79
2022/08/19 09:28:16;;;;;;;1999.90;999.90;;;26.80;99.90;;;;;;6739950;88;20200;-79
2022/08/19 09:38:17;;;;;;;1999.90;999.90;;;28.30;99.90;;;;;;6739430;88;20184;-80
2022/08/19 09:48:18;;;;;;;1999.90;999.90;;;28.90;99.90;;;;;;6740854;88;20198;-79
2022/08/19 09:58:19;;;;;;;1999.90;999.90;;;29.50;98.70;;;;;;6736620;88;20280;-80
2022/08/19 10:08:23;;;;;;;1999.90;999.90;;;30.10;97.90;;;;;;6739693;88;20263;-80
2022/08/19 10:18:25;;;;;;;1999.90;999.90;;;30.30;96.60;;;;;;6737749;88;20193;-81
2022/08/19 10:28:25;;;;;;;1999.90;999.90;;;30.00;96.30;;;;;;6745770;88;20242;-79
2022/08/19 10:38:26;;;;;;;1999.90;999.90;;;31.20;95.20;;;;;;6738461;88;20240;-78
2022/08/19 10:48:27;;;;;;;1999.90;999.90;;;30.80;94.70;;;;;;6736409;88;20995;-78
2022/08/19 10:58:28;;;;;;;1999.90;999.90;;;31.00;94.10;;;;;;6744354;88;20273;-78
2022/08/19 11:08:30;;;;;;;1999.90;999.90;;;31.30;93.60;;;;;;6746289;88;20193;-79
2022/08/19 11:18:31;;;;;;;1999.90;999.90;;;31.90;92.50;;;;;;6738196;88;20223;-79
2022/08/19 11:28:31;;;;;;;1999.90;999.90;;;30.60;92.90;;;;;;6741141;88;20616;-80
2022/08/19 11:38:32;;;;;;;1999.90;999.90;;;30.20;93.20;;;;;;6740251;88;20260;-79
2022/08/19 11:48:33;;;;;;;;;;;31.00;92.10;;;;;;6745741;88;20771;-78
2022/08/19 12:08:38;;;;;;;1999.90;999.90;;;32.00;90.50;;;;;;6755586;88;20230;-78
2022/08/19 12:18:45;;;;;;;1999.90;999.90;;;32.80;88.00;;;;;;6736511;88;20271;-79
2022/08/19 12:28:51;;;;;;;1999.90;999.90;;;31.50;88.10;;;;;;6732025;88;20339;-79
2022/08/19 12:38:52;;;;;;;1999.90;999.90;;;31.50;89.10;;;;;;6730736;88;20302;-78
2022/08/19 12:48:54;;;;;;;1999.90;999.90;;;32.10;87.90;;;;;;6731302;88;20202;-80
2022/08/19 12:58:55;;;;;;;1999.90;999.90;;;31.70;87.70;;;;;;6735770;88;20200;-80
2022/08/19 13:08:56;;;;;;;1999.90;999.90;;;31.90;87.90;;;;;;6735411;88;20300;-81
2022/08/19 13:18:58;;;;;;;1999.90;999.90;;;31.90;88.10;;;;;;6734042;88;20630;-80
2022/08/19 13:39:17;;;;;;;1999.90;999.90;;;32.30;83.00;;;;;;6733199;88;21899;-77
2022/08/19 13:49:18;;;;;;;1999.90;999.90;;;32.60;82.80;;;;;;6743489;88;20214;-80
2022/08/19 13:59:19;;;;;;;1999.90;999.90;;;32.30;83.90;;;;;;6729529;87;20203;-77
2022/08/19 14:09:19;;;;;;;1999.90;999.90;;;32.10;83.60;;;;;;6759211;88;20156;-78
2022/08/19 14:19:21;;;;;;;1999.90;999.90;;;31.70;83.40;;;;;;6732752;88;20298;-77
2022/08/19 14:29:21;;;;;;;1999.90;999.90;;;31.60;81.40;;;;;;6726529;88;20200;-78
2022/08/19 14:39:22;;;;;;;1999.90;999.90;;;32.20;81.90;;;;;;6723902;88;20241;-78
2022/08/19 14:49:22;;;;;;;1999.90;999.90;;;32.30;82.00;;;;;;6719474;88;20314;-77
2022/08/19 14:59:23;;;;;;;;;;;32.10;80.50;;;;;;6747284;88;20539;-79
2022/08/19 15:09:24;;;;;;;1999.90;999.90;;;31.10;81.70;;;;;;6755616;88;20500;-80
2022/08/19 15:19:24;;;;;;;1999.90;999.90;;;31.70;80.90;;;;;;6749442;88;20234;-77
2022/08/19 15:29:25;;;;;;;1999.90;999.90;;;30.70;81.90;;;;;;6729501;88;20225;-79
2022/08/19 15:39:25;;;;;;;1999.90;999.90;;;30.60;81.90;;;;;;6727066;88;20655;-78
2022/08/19 15:49:26;;;;;;;1999.90;999.90;;;30.70;80.30;;;;;;6730364;88;20339;-78
2022/08/19 16:09:46;;;;;;;1999.90;999.90;;;29.60;82.00;;;;;;6729582;88;20164;-78
2022/08/19 16:19:46;;;;;;;1999.90;999.90;;;29.70;83.90;;;;;;6726235;88;20290;-78
2022/08/19 16:29:47;;;;;;;1999.90;999.90;;;29.50;83.90;;;;;;6731589;88;20199;-77
2022/08/19 16:39:48;;;;;;;1999.90;999.90;;;29.70;84.10;;;;;;6731369;88;20201;-79
2022/08/19 16:49:48;;;;;;;1999.90;999.90;;;28.80;86.20;;;;;;6733317;88;20232;-78
2022/08/19 16:59:51;;;;;;;1999.90;999.90;;;28.50;88.00;;;;;;6734387;88;20220;-79
2022/08/19 17:09:51;;;;;;;1999.90;999.90;;;28.00;88.90;;;;;;6732415;88;20204;-77
2022/08/19 17:19:52;;;;;;;1999.90;999.90;;;28.30;89.10;;;;;;6735684;88;20204;-76
2022/08/19 17:29:53;;;;;;;1999.90;999.90;;;27.50;90.50;;;;;;6733510;88;20562;-78
2022/08/19 17:39:54;;;;;;;1999.90;999.90;;;27.10;91.50;;;;;;6733514;88;20344;-77
2022/08/19 17:49:55;;;;;;;1999.90;999.90;;;26.70;92.50;;;;;;6726592;88;20185;-79
2022/08/19 17:59:57;;;;;;;1999.90;999.90;;;26.20;94.00;;;;;;6723874;88;20612;-77
2022/08/19 18:09:57;;;;;;;1999.90;999.90;;;25.60;95.50;;;;;;6734721;88;20189;-80
2022/08/19 18:19:58;;;;;;;1999.90;999.90;;;25.50;96.30;;;;;;6739293;88;20197;-79
2022/08/19 18:29:59;;;;;;;1999.90;999.90;;;25.30;97.50;;;;;;6726450;88;20200;-78
2022/08/19 18:50:19;;;;;;;1999.90;999.90;;;24.80;99.50;;;;;;6736204;88;20267;-77
2022/08/19 19:00:20;;;;;;;1999.90;999.90;;;24.70;99.90;;;;;;6732691;87;20280;-78
2022/08/19 19:10:21;;;;;;;1999.90;999.90;;;24.50;99.90;;;;;;6727293;88;20638;-78
2022/08/19 19:20:21;;;;;;;1999.90;999.90;;;24.30;99.90;;;;;;6732061;88;20193;-79
2022/08/19 19:30:29;;;;;;;1999.90;999.90;;;24.10;99.90;;;;;;6738676;88;20678;-78
2022/08/19 19:40:30;;;;;;;1999.90;999.90;;;24.00;99.90;;;;;;6731711;88;20190;-79
2022/08/19 19:50:31;;;;;;;1999.90;999.90;;;23.90;99.90;;;;;;6735742;88;20196;-79
2022/08/19 20:00:31;;;;;;;1999.90;999.90;;;24.00;99.90;;;;;;6740223;88;20688;-79
2022/08/19 20:10:32;;;;;;;1999.90;999.90;;;23.90;99.90;;;;;;6734526;88;20218;-79
2022/08/19 20:20:33;;;;;;;1999.90;999.90;;;24.00;99.90;;;;;;6740166;88;21078;-79
2022/08/19 20:30:34;;;;;;;1999.90;999.90;;;23.90;99.90;;;;;;6738897;88;20686;-78
2022/08/19 20:40:35;;;;;;;1999.90;999.90;;;23.60;99.90;;;;;;6742037;88;20953;-74
2022/08/19 20:50:36;;;;;;;1999.90;999.90;;;23.50;99.90;;;;;;6744324;88;20207;-77
2022/08/19 21:00:37;;;;;;;1999.90;999.90;;;23.40;99.90;;;;;;6742073;88;20192;-79
2022/08/19 21:10:38;;;;;;;1999.90;999.90;;;23.20;99.90;;;;;;6738916;88;20193;-76
2022/08/19 21:20:40;;;;;;;1999.90;999.90;;;23.00;99.90;;;;;;6734112;88;20245;-77
2022/08/19 21:30:40;;;;;;;1999.90;999.90;;;22.80;99.90;;;;;;6736412;88;20205;-77
2022/08/19 21:40:41;;;;;;;1999.90;999.90;;;23.00;99.90;;;;;;6736093;88;20475;-77
2022/08/19 21:50:43;;;;;;;1999.90;999.90;;;22.90;99.90;;;;;;6746550;88;20201;-79
2022/08/19 22:00:43;;;;;;;1999.90;999.90;;;22.90;99.90;;;;;;6747175;88;20263;-79
2022/08/19 22:10:44;;;;;;;1999.90;999.90;;;22.70;99.90;;;;;;6743920;88;20197;-80
2022/08/19 22:20:46;;;;;;;1999.90;999.90;;;22.60;99.90;;;;;;6737429;88;20196;-79
2022/08/19 22:30:47;;;;;;;1999.90;999.90;;;22.50;99.90;;;;;;6737306;88;20348;-79
2022/08/19 22:40:49;;;;;;;1999.90;999.90;;;22.40;99.90;;;;;;6734902;88;20743;-79
2022/08/19 23:01:11;;;;;;;1999.90;999.90;;;22.10;99.90;;;;;;6742984;88;20182;-78
2022/08/19 23:11:12;;;;;;;1999.90;999.90;;;22.10;99.90;;;;;;6739695;88;20178;-79
2022/08/19 23:21:13;;;;;;;1999.90;999.90;;;21.90;99.90;;;;;;6731961;88;20282;-78
2022/08/19 23:31:15;;;;;;;1999.90;999.90;;;21.90;99.90;;;;;;6735698;88;20185;-79
2022/08/19 23:41:17;;;;;;;1999.90;999.90;;;21.90;99.90;;;;;;6737190;88;20192;-79
2022/08/19 23:51:19;;;;;;;1999.90;999.90;;;21.80;99.90;;;;;;6735950;88;20188;-78
